Time;durP1;ratioP1;P1;durP2;ratioP2;P2;SDS_P1;SDS_P2;PMS_P1;PMS_P2;Temp;Humidity;BMP_temperature;BMP_pressure;BME280_temperature;BME280_humidity;BME280_pressure;Samples;Min_cycle;Max_cycle;Signal;HPM_P1;HPM_P2
2021/12/13 00:00:36;;;;;;;8.55;6.30;;;5.50;92.80;;;;;;5072507;28;20037;-79
2021/12/13 00:03:07;;;;;;;9.18;6.72;;;5.50;92.80;;;;;;5059596;28;20123;-79
2021/12/13 00:05:33;;;;;;;12.88;6.18;;;5.50;92.80;;;;;;5063382;28;20733;-80
2021/12/13 00:08:02;;;;;;;8.73;6.15;;;5.50;92.80;;;;;;5067178;28;20040;-79
2021/12/13 00:10:41;;;;;;;6.07;4.40;;;5.50;92.80;;;;;;5047759;28;20052;-80
2021/12/13 00:13:16;;;;;;;7.68;5.00;;;5.50;92.80;;;;;;5063956;28;20750;-79
2021/12/13 00:15:56;;;;;;;6.93;4.70;;;5.50;92.80;;;;;;5080528;28;20037;-80
2021/12/13 00:18:29;;;;;;;6.60;4.75;;;5.50;92.80;;;;;;5041942;28;20033;-79
2021/12/13 00:21:08;;;;;;;6.88;5.20;;;5.50;92.80;;;;;;5052239;28;20428;-80
2021/12/13 00:23:55;;;;;;;5.85;4.30;;;5.50;92.80;;;;;;5047466;28;20093;-79
2021/12/13 00:26:41;;;;;;;6.70;4.28;;;5.50;92.80;;;;;;5057443;28;20041;-79
2021/12/13 00:29:11;;;;;;;9.27;6.38;;;5.50;92.90;;;;;;5036361;28;20741;-79
2021/12/13 00:31:40;;;;;;;9.10;5.60;;;5.50;92.80;;;;;;5021343;28;20052;-79
2021/12/13 00:34:11;;;;;;;9.30;5.63;;;5.50;92.80;;;;;;5028002;28;20131;-79
2021/12/13 00:36:55;;;;;;;9.68;5.50;;;5.50;92.80;;;;;;5019956;28;20037;-79
2021/12/13 00:39:22;;;;;;;9.13;5.40;;;5.60;92.90;;;;;;5044970;28;20078;-79
2021/12/13 00:41:48;;;;;;;8.15;4.95;;;5.50;92.80;;;;;;5049786;28;20037;-80
2021/12/13 00:44:27;;;;;;;13.18;5.78;;;5.60;92.90;;;;;;5035562;28;20032;-79
2021/12/13 00:46:54;;;;;;;8.23;5.32;;;5.50;92.90;;;;;;5059913;28;20032;-79
2021/12/13 00:49:22;;;;;;;10.05;5.20;;;5.50;93.20;;;;;;5039575;28;20568;-79
2021/12/13 00:51:50;;;;;;;9.63;5.75;;;5.50;92.90;;;;;;5059030;28;20398;-79
2021/12/13 00:54:32;;;;;;;8.07;5.57;;;5.60;92.90;;;;;;5044384;28;20068;-80
2021/12/13 00:57:04;;;;;;;8.55;5.75;;;5.60;92.90;;;;;;5035770;28;20032;-79
2021/12/13 00:59:40;;;;;;;6.40;5.22;;;5.60;92.90;;;;;;5080213;28;20035;-80
2021/12/13 01:02:10;;;;;;;6.57;4.68;;;5.60;92.90;;;;;;5042000;28;20040;-79
2021/12/13 01:04:56;;;;;;;7.68;5.22;;;5.60;92.90;;;;;;5038618;28;20025;-79
2021/12/13 01:07:33;;;;;;;8.60;5.03;;;5.50;93.00;;;;;;5064770;28;20050;-79
2021/12/13 01:10:35;;;;;;;7.18;5.00;;;5.60;93.00;;;;;;5060622;28;20032;-80
2021/12/13 01:13:02;;;;;;;5.10;3.95;;;5.60;93.00;;;;;;5053127;28;20043;-79
2021/12/13 01:15:37;;;;;;;5.90;4.57;;;5.60;92.90;;;;;;5014803;28;20075;-79
2021/12/13 01:18:27;;;;;;;8.13;5.10;;;5.60;93.00;;;;;;5076269;28;20036;-79
2021/12/13 01:21:15;;;;;;;5.43;4.15;;;5.60;93.00;;;;;;5030092;28;20044;-79
2021/12/13 01:23:46;;;;;;;6.57;4.22;;;5.60;93.00;;;;;;5053167;28;20051;-79
2021/12/13 01:28:51;;;;;;;7.55;5.00;;;5.60;93.00;;;;;;5058147;28;20039;-79
2021/12/13 01:31:24;;;;;;;8.18;5.55;;;5.60;93.00;;;;;;5060127;28;20150;-80
2021/12/13 01:33:50;;;;;;;6.10;4.30;;;5.60;93.00;;;;;;5072215;28;20047;-79
2021/12/13 01:36:21;;;;;;;7.22;4.10;;;5.60;93.00;;;;;;5055940;28;20498;-79
2021/12/13 01:38:59;;;;;;;5.90;4.43;;;5.60;93.00;;;;;;5052675;28;20547;-79
2021/12/13 01:41:47;;;;;;;6.93;4.78;;;5.60;93.00;;;;;;5037730;28;20048;-79
2021/12/13 01:44:24;;;;;;;6.25;4.35;;;5.60;93.00;;;;;;5056220;28;20035;-79
2021/12/13 01:46:55;;;;;;;7.75;5.43;;;5.60;93.00;;;;;;5045865;28;20516;-79
2021/12/13 01:49:28;;;;;;;7.85;4.93;;;5.60;93.00;;;;;;5042654;28;20539;-80
2021/12/13 01:51:53;;;;;;;5.93;4.05;;;5.60;93.00;;;;;;5048395;28;20032;-79
2021/12/13 01:54:20;;;;;;;7.47;5.25;;;5.60;93.00;;;;;;5057782;28;20434;-79
2021/12/13 01:56:56;;;;;;;9.07;5.28;;;5.60;93.00;;;;;;5043243;28;20194;-79
2021/12/13 02:02:01;;;;;;;5.90;4.70;;;5.60;93.10;;;;;;5063152;28;20646;-80
2021/12/13 02:04:27;;;;;;;6.22;4.57;;;5.60;93.10;;;;;;5040894;28;20090;-80
2021/12/13 02:06:58;;;;;;;8.35;4.68;;;5.60;93.10;;;;;;5063796;28;20040;-79
2021/12/13 02:09:25;;;;;;;;;;;5.60;93.10;;;;;;5034575;28;20154;-79
2021/12/13 02:11:53;;;;;;;6.07;4.20;;;5.60;93.10;;;;;;5078536;28;19920;-79
2021/12/13 02:14:24;;;;;;;5.55;3.75;;;5.60;93.00;;;;;;5043359;28;20498;-79
2021/12/13 02:17:10;;;;;;;8.70;5.45;;;5.60;93.00;;;;;;5051267;28;20048;-79
2021/12/13 02:19:59;;;;;;;5.65;4.20;;;5.70;93.10;;;;;;5032582;28;20040;-79
2021/12/13 02:22:44;;;;;;;7.15;4.63;;;5.60;93.00;;;;;;5038129;28;20047;-80
2021/12/13 02:25:15;;;;;;;5.80;4.13;;;5.60;93.10;;;;;;5053972;28;20086;-79
2021/12/13 02:27:53;;;;;;;8.05;5.50;;;5.60;93.00;;;;;;5016245;28;20030;-79
2021/12/13 02:30:30;;;;;;;7.43;5.20;;;5.60;93.00;;;;;;5052433;28;20075;-79
2021/12/13 02:32:56;;;;;;;9.63;6.38;;;5.60;93.10;;;;;;5028093;28;20072;-79
2021/12/13 02:35:23;;;;;;;6.07;4.55;;;5.70;93.10;;;;;;5041412;28;20056;-80
2021/12/13 02:37:49;;;;;;;9.93;6.40;;;5.70;93.10;;;;;;5028318;28;20036;-80
2021/12/13 02:40:15;;;;;;;12.68;7.35;;;5.70;93.10;;;;;;5038767;28;20033;-80
2021/12/13 02:42:41;;;;;;;11.13;6.97;;;5.60;93.10;;;;;;5040195;28;20036;-80
2021/12/13 02:45:17;;;;;;;10.38;6.85;;;5.70;93.10;;;;;;5042939;28;20163;-80
2021/12/13 02:47:49;;;;;;;9.48;6.57;;;5.70;93.20;;;;;;5065566;28;20025;-80
2021/12/13 02:50:25;;;;;;;12.13;7.05;;;5.70;93.20;;;;;;5044822;28;20142;-80
2021/12/13 02:52:51;;;;;;;8.65;5.95;;;5.70;93.20;;;;;;5045443;28;20031;-80
2021/12/13 02:55:22;;;;;;;7.95;5.90;;;5.70;93.20;;;;;;5038325;28;20426;-79
2021/12/13 02:57:50;;;;;;;10.57;7.03;;;5.70;93.20;;;;;;5025411;28;20043;-80
2021/12/13 03:00:20;;;;;;;9.88;6.72;;;5.70;93.20;;;;;;5040839;28;20032;-80
2021/12/13 03:02:47;;;;;;;9.60;6.25;;;5.70;93.20;;;;;;5073520;28;20112;-80
2021/12/13 03:05:17;;;;;;;12.82;7.40;;;5.70;93.20;;;;;;5027308;28;20088;-80
2021/12/13 03:07:47;;;;;;;11.10;6.72;;;5.70;93.60;;;;;;5045410;28;20035;-79
2021/12/13 03:10:19;;;;;;;10.35;6.50;;;5.70;93.20;;;;;;5029157;28;20032;-79
2021/12/13 03:12:45;;;;;;;10.60;6.78;;;5.70;93.20;;;;;;5032806;28;20063;-79
2021/12/13 03:15:13;;;;;;;10.80;6.53;;;5.70;93.20;;;;;;5064574;28;20655;-79
2021/12/13 03:17:50;;;;;;;11.52;6.63;;;5.70;93.20;;;;;;5028444;28;20507;-79
2021/12/13 03:20:18;;;;;;;8.13;5.90;;;5.70;93.30;;;;;;5049638;28;20545;-80
2021/12/13 03:23:18;;;;;;;9.65;6.22;;;5.70;93.30;;;;;;5068418;28;20044;-79
2021/12/13 03:26:21;;;;;;;10.77;6.38;;;5.70;93.30;;;;;;5052346;28;20044;-80
2021/12/13 03:29:07;;;;;;;9.70;6.05;;;5.70;93.30;;;;;;5059942;28;20215;-80
2021/12/13 03:31:36;;;;;;;10.90;6.45;;;5.70;93.30;;;;;;5072129;28;20877;-79
2021/12/13 03:34:08;;;;;;;12.73;6.78;;;5.70;93.20;;;;;;5034912;28;20062;-80
2021/12/13 03:36:39;;;;;;;;;;;5.70;93.20;;;;;;5050973;28;20632;-79
2021/12/13 03:39:06;;;;;;;8.73;6.10;;;5.70;93.20;;;;;;5082911;28;19915;-79
2021/12/13 03:41:32;;;;;;;10.70;6.93;;;5.70;93.20;;;;;;5057240;28;20028;-79
2021/12/13 03:44:00;;;;;;;11.93;7.18;;;5.70;93.20;;;;;;5041987;28;20036;-79
2021/12/13 03:46:27;;;;;;;11.02;6.72;;;5.70;93.20;;;;;;5043254;28;20033;-80
2021/12/13 03:48:54;;;;;;;10.10;6.72;;;5.70;93.20;;;;;;5035167;28;20035;-79
2021/12/13 03:51:37;;;;;;;11.60;5.97;;;5.70;93.30;;;;;;5060250;28;20052;-79
2021/12/13 03:54:04;;;;;;;11.35;6.70;;;5.70;93.30;;;;;;5058097;28;20040;-80
2021/12/13 03:56:34;;;;;;;9.90;6.22;;;5.70;93.30;;;;;;5015857;28;20496;-79
2021/12/13 03:59:13;;;;;;;9.73;6.28;;;5.70;93.30;;;;;;5026033;28;21070;-79
2021/12/13 04:01:47;;;;;;;8.98;6.07;;;5.70;93.30;;;;;;5049279;28;20033;-79
2021/12/13 04:04:25;;;;;;;8.27;5.55;;;5.80;93.30;;;;;;5021316;28;20085;-79
2021/12/13 04:06:53;;;;;;;7.93;5.60;;;5.70;93.30;;;;;;5028893;28;20032;-80
2021/12/13 04:09:19;;;;;;;7.13;5.30;;;5.80;93.40;;;;;;5065258;28;20036;-80
2021/12/13 04:11:45;;;;;;;7.82;5.35;;;5.80;93.40;;;;;;5073725;28;20570;-79
2021/12/13 04:14:16;;;;;;;7.70;5.28;;;5.80;93.40;;;;;;5026518;28;20054;-80
2021/12/13 04:17:03;;;;;;;7.43;5.10;;;5.80;93.40;;;;;;5063967;28;20039;-79
2021/12/13 04:19:31;;;;;;;6.80;4.90;;;5.80;93.40;;;;;;5051466;28;20039;-80
2021/12/13 04:22:01;;;;;;;7.47;5.30;;;5.80;93.40;;;;;;5052710;28;21135;-79
2021/12/13 04:24:37;;;;;;;6.47;5.05;;;5.80;93.40;;;;;;5047377;28;20123;-79
2021/12/13 04:27:28;;;;;;;13.07;6.72;;;5.80;93.40;;;;;;5073254;28;20036;-79
2021/12/13 04:29:56;;;;;;;12.37;7.27;;;5.70;93.40;;;;;;5038151;28;20046;-79
2021/12/13 04:32:46;;;;;;;11.05;6.18;;;5.80;93.40;;;;;;5054396;28;20040;-79
2021/12/13 04:35:12;;;;;;;11.85;6.57;;;5.70;93.40;;;;;;5039766;28;20119;-79
2021/12/13 04:37:40;;;;;;;8.82;5.63;;;5.80;93.40;;;;;;5050479;28;20025;-79
2021/12/13 04:40:11;;;;;;;8.45;6.05;;;5.80;93.40;;;;;;5050177;28;20565;-79
2021/12/13 04:42:37;;;;;;;8.45;5.80;;;5.80;93.40;;;;;;5054490;28;20521;-79
2021/12/13 04:45:08;;;;;;;9.02;5.88;;;5.80;93.40;;;;;;5058234;28;20040;-80
2021/12/13 04:47:47;;;;;;;8.15;5.53;;;5.80;93.40;;;;;;5042039;28;20040;-79
2021/12/13 04:50:23;;;;;;;7.45;5.68;;;5.80;93.40;;;;;;5062130;28;20186;-79
2021/12/13 04:52:50;;;;;;;6.45;4.70;;;5.80;93.40;;;;;;5043897;28;20036;-79
2021/12/13 04:55:36;;;;;;;7.45;5.03;;;5.80;93.40;;;;;;5048735;28;20028;-79
2021/12/13 04:58:04;;;;;;;8.55;5.80;;;5.80;93.50;;;;;;5065080;28;20061;-79
2021/12/13 05:00:32;;;;;;;11.68;6.78;;;5.80;93.50;;;;;;5020497;28;20060;-80
2021/12/13 05:02:59;;;;;;;10.25;6.32;;;5.80;93.50;;;;;;5032181;28;20036;-82
2021/12/13 05:05:25;;;;;;;11.55;6.80;;;5.90;93.50;;;;;;5045632;28;20021;-82
2021/12/13 05:07:51;;;;;;;11.43;7.13;;;5.90;93.50;;;;;;5066460;28;20032;-82
2021/12/13 05:10:17;;;;;;;10.52;6.07;;;5.80;93.50;;;;;;5042731;28;20523;-81
2021/12/13 05:12:58;;;;;;;15.80;9.20;;;5.80;93.50;;;;;;5067016;28;20033;-80
2021/12/13 05:15:23;;;;;;;23.92;12.40;;;5.90;93.60;;;;;;5018139;28;20525;-81
2021/12/13 05:17:49;;;;;;;29.08;15.13;;;5.90;93.50;;;;;;5041277;28;20032;-79
2021/12/13 05:20:21;;;;;;;27.77;16.02;;;5.90;93.50;;;;;;5016597;28;20044;-80
2021/12/13 05:23:08;;;;;;;24.52;13.68;;;5.80;93.50;;;;;;5033030;28;20052;-80
2021/12/13 05:25:50;;;;;;;18.40;10.60;;;5.90;93.50;;;;;;5062049;28;20028;-80
2021/12/13 05:28:22;;;;;;;17.02;9.48;;;5.80;93.50;;;;;;5067757;28;20141;-80
2021/12/13 05:30:57;;;;;;;9.93;7.40;;;5.90;93.50;;;;;;5045524;28;20688;-80
2021/12/13 05:33:23;;;;;;;13.90;8.50;;;5.90;93.50;;;;;;5022944;28;20140;-80
2021/12/13 05:35:51;;;;;;;16.00;8.77;;;5.90;93.50;;;;;;5040120;28;20067;-79
2021/12/13 05:38:31;;;;;;;17.30;9.77;;;5.90;93.50;;;;;;5041167;28;20092;-79
2021/12/13 05:40:58;;;;;;;15.18;9.32;;;5.90;93.60;;;;;;5039994;28;20131;-83
2021/12/13 05:43:30;;;;;;;14.05;8.63;;;5.80;93.50;;;;;;5055135;28;20143;-82
2021/12/13 05:46:10;;;;;;;10.40;7.15;;;5.90;93.50;;;;;;5040932;28;20714;-82
2021/12/13 05:48:37;;;;;;;6.88;4.43;;;5.80;93.50;;;;;;5034230;28;20117;-83
2021/12/13 05:51:25;;;;;;;6.97;4.85;;;5.80;93.50;;;;;;5062639;28;20040;-82
2021/12/13 05:53:58;;;;;;;6.15;4.55;;;5.80;93.50;;;;;;5038308;28;20170;-82
2021/12/13 05:56:27;;;;;;;6.85;4.43;;;5.80;93.50;;;;;;5051831;28;20112;-80
2021/12/13 05:58:57;;;;;;;8.27;4.90;;;5.80;93.40;;;;;;5021062;28;20482;-80
2021/12/13 06:01:29;;;;;;;7.38;5.00;;;5.70;93.40;;;;;;5041898;28;20036;-83
2021/12/13 06:04:13;;;;;;;6.38;4.53;;;5.60;93.30;;;;;;5059058;28;20490;-81
2021/12/13 06:06:47;;;;;;;6.68;4.45;;;5.60;93.30;;;;;;5063866;28;20046;-79
2021/12/13 06:09:47;;;;;;;7.63;4.75;;;5.60;93.30;;;;;;5034536;28;20044;-79
2021/12/13 06:12:28;;;;;;;6.00;4.40;;;5.60;93.30;;;;;;5051346;28;20036;-79
2021/12/13 06:14:54;;;;;;;6.65;4.20;;;5.50;93.30;;;;;;5071568;28;20025;-79
2021/12/13 06:17:30;;;;;;;7.65;4.70;;;5.50;93.30;;;;;;5049574;28;20031;-79
2021/12/13 06:20:04;;;;;;;6.78;5.07;;;5.50;93.40;;;;;;5072096;28;20043;-79
2021/12/13 06:22:31;;;;;;;6.90;4.82;;;5.50;93.30;;;;;;5037091;28;20052;-79
2021/12/13 06:25:04;;;;;;;6.20;4.38;;;5.50;93.30;;;;;;5046230;28;20120;-79
2021/12/13 06:27:31;;;;;;;8.32;5.40;;;5.40;93.30;;;;;;5036053;28;20021;-80
2021/12/13 06:30:02;;;;;;;6.82;5.05;;;5.50;93.40;;;;;;5064212;28;20031;-79
2021/12/13 06:32:42;;;;;;;5.57;4.00;;;5.40;93.30;;;;;;5028038;28;20036;-79
2021/12/13 06:35:42;;;;;;;7.30;4.90;;;5.40;93.40;;;;;;5078224;28;20031;-80
2021/12/13 06:38:20;;;;;;;10.45;5.10;;;5.40;93.40;;;;;;5069866;28;20035;-80
2021/12/13 06:41:17;;;;;;;8.27;4.50;;;5.40;93.40;;;;;;5048326;28;20032;-80
2021/12/13 06:44:00;;;;;;;7.20;4.57;;;5.40;93.40;;;;;;5051378;28;20028;-80
2021/12/13 06:46:26;;;;;;;7.90;4.47;;;5.40;93.40;;;;;;5052562;28;20078;-80
2021/12/13 06:48:59;;;;;;;7.47;4.32;;;5.40;93.40;;;;;;5057288;28;20180;-80
2021/12/13 06:51:55;;;;;;;8.48;4.88;;;5.40;93.40;;;;;;5022961;28;20039;-80
2021/12/13 06:54:29;;;;;;;6.22;4.38;;;5.40;93.50;;;;;;5079051;28;20460;-79
2021/12/13 06:57:19;;;;;;;6.75;4.38;;;5.40;93.50;;;;;;5028683;28;20039;-79
2021/12/13 06:59:52;;;;;;;5.30;4.25;;;5.50;93.50;;;;;;5035994;28;20370;-82
2021/12/13 07:02:20;;;;;;;8.60;4.30;;;5.50;93.50;;;;;;5047126;28;20024;-83
2021/12/13 07:04:54;;;;;;;6.25;3.97;;;5.50;93.50;;;;;;5061318;28;20040;-84
2021/12/13 07:07:22;;;;;;;8.15;5.50;;;5.40;93.50;;;;;;5070030;28;20486;-83
2021/12/13 07:09:54;;;;;;;20.45;10.52;;;5.50;93.50;;;;;;5050668;28;20039;-81
2021/12/13 07:12:19;;;;;;;13.38;7.75;;;5.50;93.50;;;;;;5053262;28;20029;-81
2021/12/13 07:14:46;;;;;;;10.32;6.10;;;5.50;93.50;;;;;;5057445;28;20396;-82
2021/12/13 07:17:22;;;;;;;8.00;4.82;;;5.50;93.50;;;;;;5056220;28;20060;-83
2021/12/13 07:19:49;;;;;;;7.78;5.38;;;5.50;93.60;;;;;;5030188;28;20098;-82
2021/12/13 07:22:23;;;;;;;7.70;5.47;;;5.50;93.90;;;;;;5024339;28;20037;-82
2021/12/13 07:24:53;;;;;;;9.18;5.70;;;5.50;93.60;;;;;;5038752;28;20105;-83
2021/12/13 07:27:27;;;;;;;9.25;6.13;;;5.50;93.60;;;;;;5038597;28;20052;-83
2021/12/13 07:29:56;;;;;;;7.80;5.35;;;5.50;93.60;;;;;;5037107;28;20042;-83
2021/12/13 07:32:29;;;;;;;7.95;5.22;;;5.50;93.60;;;;;;5061771;28;20103;-82
2021/12/13 07:34:54;;;;;;;8.75;5.53;;;5.50;93.60;;;;;;5069164;28;20513;-81
2021/12/13 07:37:46;;;;;;;7.18;5.03;;;5.60;93.70;;;;;;5047540;28;20029;-82
2021/12/13 07:40:20;;;;;;;11.35;6.88;;;5.60;93.80;;;;;;5043401;28;20039;-82
2021/12/13 07:42:53;;;;;;;9.40;5.43;;;5.60;93.70;;;;;;5056991;28;20029;-84
2021/12/13 07:45:30;;;;;;;8.30;4.93;;;5.60;93.70;;;;;;5055042;28;20506;-82
2021/12/13 07:47:57;;;;;;;7.28;5.38;;;5.60;93.70;;;;;;5048387;28;20117;-82
2021/12/13 07:50:23;;;;;;;13.75;8.68;;;5.60;93.70;;;;;;5049597;28;20107;-82
2021/12/13 07:52:53;;;;;;;18.50;11.52;;;5.70;93.70;;;;;;5047916;28;20190;-81
2021/12/13 07:55:26;;;;;;;19.23;12.40;;;5.70;93.80;;;;;;5068692;28;20028;-82
2021/12/13 07:57:53;;;;;;;23.27;13.55;;;5.70;93.80;;;;;;5050813;28;20288;-83
2021/12/13 08:00:24;;;;;;;24.98;13.93;;;5.70;93.80;;;;;;5053966;28;20228;-82
2021/12/13 08:02:54;;;;;;;25.20;13.57;;;5.70;93.80;;;;;;5065399;28;20028;-81
2021/12/13 08:05:24;;;;;;;25.25;15.23;;;5.70;93.80;;;;;;5047023;28;20033;-82
2021/12/13 08:07:52;;;;;;;28.48;16.33;;;5.70;93.80;;;;;;5039748;28;20044;-83
2021/12/13 08:10:24;;;;;;;25.52;16.05;;;5.80;93.80;;;;;;5027006;28;20453;-82
2021/12/13 08:12:55;;;;;;;26.33;15.15;;;5.80;93.80;;;;;;5056877;28;20123;-82
2021/12/13 08:15:21;;;;;;;;;;;5.80;93.80;;;;;;5048100;28;20037;-82
2021/12/13 08:17:56;;;;;;;26.10;14.07;;;5.80;93.80;;;;;;5063577;28;19914;-84
2021/12/13 08:20:26;;;;;;;20.75;12.00;;;5.80;93.70;;;;;;5063230;28;20055;-83
2021/12/13 08:22:52;;;;;;;17.55;11.57;;;5.90;93.80;;;;;;5073283;28;20028;-81
2021/12/13 08:25:23;;;;;;;19.70;12.57;;;5.90;93.80;;;;;;5024329;28;20190;-81
2021/12/13 08:27:52;;;;;;;16.10;10.57;;;5.90;93.80;;;;;;5019069;28;20116;-82
2021/12/13 08:30:27;;;;;;;14.00;9.02;;;5.90;93.80;;;;;;5062207;28;20048;-83
2021/12/13 08:33:14;;;;;;;15.13;9.68;;;6.00;93.90;;;;;;5022832;28;20033;-83
2021/12/13 08:35:50;;;;;;;21.40;10.68;;;6.00;93.90;;;;;;5028157;28;20098;-82
2021/12/13 08:38:51;;;;;;;24.30;11.88;;;6.00;93.90;;;;;;5071292;28;20035;-82
2021/12/13 08:41:25;;;;;;;19.95;11.75;;;6.10;93.90;;;;;;5062119;28;20036;-80
2021/12/13 08:44:11;;;;;;;22.00;13.13;;;6.10;93.90;;;;;;5062627;28;20648;-80
2021/12/13 08:46:55;;;;;;;19.70;11.30;;;6.20;94.00;;;;;;5063609;28;20028;-79
2021/12/13 08:49:25;;;;;;;17.50;9.23;;;6.20;93.90;;;;;;5046173;28;20032;-80
2021/12/13 08:52:14;;;;;;;12.23;8.00;;;6.20;93.90;;;;;;5045546;28;20053;-80
2021/12/13 08:54:51;;;;;;;11.70;7.38;;;6.30;93.90;;;;;;5052721;28;20113;-80
2021/12/13 08:57:37;;;;;;;12.48;7.68;;;6.30;93.90;;;;;;5048793;28;20032;-80
2021/12/13 09:00:19;;;;;;;13.65;8.25;;;6.40;94.00;;;;;;5038461;28;20115;-80
2021/12/13 09:02:53;;;;;;;13.25;8.40;;;6.40;94.00;;;;;;5029908;28;20116;-79
2021/12/13 09:05:40;;;;;;;11.27;7.78;;;6.50;94.00;;;;;;5035390;28;20129;-80
2021/12/13 09:08:13;;;;;;;11.32;7.28;;;6.50;94.00;;;;;;5076194;28;20181;-80
2021/12/13 09:11:01;;;;;;;10.05;6.60;;;6.60;94.00;;;;;;5072339;28;20034;-80
2021/12/13 09:13:36;;;;;;;13.23;7.55;;;6.60;94.30;;;;;;5053991;28;20059;-80
2021/12/13 09:16:02;;;;;;;10.73;7.60;;;6.70;93.90;;;;;;5069270;28;20591;-80
2021/12/13 09:18:28;;;;;;;13.60;7.95;;;6.70;93.90;;;;;;5054967;28;20097;-79
2021/12/13 09:20:54;;;;;;;14.20;8.35;;;6.80;94.00;;;;;;5039453;28;20283;-80
2021/12/13 09:23:35;;;;;;;18.02;8.60;;;6.90;94.00;;;;;;5048883;28;20029;-79
2021/12/13 09:26:08;;;;;;;13.95;9.55;;;7.10;94.10;;;;;;5072179;28;20406;-80
2021/12/13 09:28:43;;;;;;;14.20;9.45;;;7.20;94.00;;;;;;5059932;28;20036;-80
2021/12/13 09:31:15;;;;;;;18.48;11.35;;;7.20;94.00;;;;;;5033314;28;20036;-80
2021/12/13 09:33:49;;;;;;;13.35;8.80;;;7.30;94.00;;;;;;5038027;28;20052;-80
2021/12/13 09:36:42;;;;;;;14.25;9.27;;;7.40;94.00;;;;;;5030724;28;20033;-79
2021/12/13 09:39:17;;;;;;;15.27;10.80;;;7.50;94.00;;;;;;5055307;28;20146;-79
2021/12/13 09:41:47;;;;;;;15.23;10.57;;;7.50;93.90;;;;;;5048694;28;20033;-80
2021/12/13 09:44:31;;;;;;;14.38;9.50;;;7.60;93.90;;;;;;5025353;28;20045;-80
2021/12/13 09:47:06;;;;;;;14.57;8.98;;;7.60;93.90;;;;;;5050806;28;20044;-80
2021/12/13 09:49:36;;;;;;;15.73;9.20;;;7.70;93.90;;;;;;5044590;28;20052;-80
2021/12/13 09:52:27;;;;;;;14.82;9.20;;;7.70;93.90;;;;;;5036896;28;20046;-80
2021/12/13 09:55:02;;;;;;;15.90;9.93;;;7.70;93.90;;;;;;5023099;28;20040;-80
2021/12/13 09:57:40;;;;;;;16.63;10.18;;;7.70;93.80;;;;;;5022322;28;20052;-80
2021/12/13 10:00:34;;;;;;;13.48;9.35;;;7.70;93.80;;;;;;5033676;28;20037;-80
2021/12/13 10:03:04;;;;;;;16.17;9.10;;;7.80;93.90;;;;;;5022327;28;20112;-81
2021/12/13 10:05:33;;;;;;;84.55;42.60;;;7.80;93.80;;;;;;5062466;28;20024;-80
2021/12/13 10:08:03;;;;;;;21.38;13.98;;;7.90;93.80;;;;;;5024613;28;20669;-81
2021/12/13 10:10:38;;;;;;;16.95;10.30;;;7.90;93.80;;;;;;5026203;28;20029;-80
2021/12/13 10:13:10;;;;;;;16.90;10.63;;;7.90;93.80;;;;;;5047549;28;20033;-81
2021/12/13 10:15:45;;;;;;;21.77;12.73;;;7.90;93.80;;;;;;5058106;28;20079;-80
2021/12/13 10:18:17;;;;;;;15.60;9.02;;;8.00;93.80;;;;;;5053630;28;20036;-81
2021/12/13 10:20:44;;;;;;;;;;;7.90;93.70;;;;;;5034152;28;20033;-83
2021/12/13 10:23:22;;;;;;;12.70;7.65;;;8.00;93.70;;;;;;5044165;28;19912;-80
2021/12/13 10:25:49;;;;;;;10.85;7.40;;;8.00;93.60;;;;;;5035957;28;20048;-80
2021/12/13 10:28:18;;;;;;;15.68;8.82;;;8.00;93.60;;;;;;5044672;28;20049;-80
2021/12/13 10:30:50;;;;;;;12.98;7.93;;;8.00;93.60;;;;;;5047711;28;20028;-80
2021/12/13 10:33:17;;;;;;;11.82;8.43;;;8.00;93.60;;;;;;5037217;28;20041;-80
2021/12/13 10:35:43;;;;;;;11.68;7.22;;;8.00;93.60;;;;;;4997852;28;20037;-80
2021/12/13 10:38:11;;;;;;;9.88;7.10;;;8.10;93.90;;;;;;5052408;28;20033;-80
2021/12/13 10:40:50;;;;;;;11.32;7.22;;;8.10;93.60;;;;;;5078951;28;20498;-80
2021/12/13 10:43:18;;;;;;;12.05;7.35;;;8.10;93.50;;;;;;5050788;28;20119;-80
2021/12/13 10:46:00;;;;;;;11.00;7.45;;;8.10;93.50;;;;;;5034594;28;20044;-80
2021/12/13 10:48:27;;;;;;;10.05;6.63;;;8.10;93.40;;;;;;5035072;28;20041;-80
2021/12/13 10:50:56;;;;;;;8.80;6.28;;;8.10;93.40;;;;;;5054127;28;20118;-80
2021/12/13 10:53:25;;;;;;;10.20;6.50;;;8.10;93.40;;;;;;5044132;28;20040;-80
2021/12/13 10:55:58;;;;;;;9.95;5.53;;;8.20;93.40;;;;;;5073235;28;20060;-80
2021/12/13 10:58:26;;;;;;;8.85;6.03;;;8.20;93.80;;;;;;5055291;28;20025;-80
2021/12/13 11:00:58;;;;;;;7.85;5.70;;;8.20;93.40;;;;;;5071334;28;20056;-80
2021/12/13 11:03:25;;;;;;;8.13;5.72;;;8.20;93.30;;;;;;5039031;28;20042;-80
2021/12/13 11:05:50;;;;;;;9.45;6.30;;;8.20;93.30;;;;;;5027572;28;20069;-80
2021/12/13 11:08:17;;;;;;;10.82;5.57;;;8.20;93.20;;;;;;5009214;28;20511;-80
2021/12/13 11:10:52;;;;;;;8.32;5.40;;;8.30;93.20;;;;;;5046876;28;20032;-81
2021/12/13 11:13:18;;;;;;;9.15;5.90;;;8.30;93.20;;;;;;5049107;28;20653;-80
2021/12/13 11:15:46;;;;;;;8.60;5.50;;;8.30;93.20;;;;;;5060316;28;20025;-80
2021/12/13 11:18:14;;;;;;;10.15;6.22;;;8.30;93.10;;;;;;5036011;28;20124;-80
2021/12/13 11:20:45;;;;;;;11.30;7.00;;;8.30;93.10;;;;;;5050022;28;20029;-80
2021/12/13 11:23:12;;;;;;;14.18;8.82;;;8.40;93.10;;;;;;5042006;28;20104;-80
2021/12/13 11:25:40;;;;;;;8.10;5.60;;;8.40;93.10;;;;;;5034763;28;20135;-80
2021/12/13 11:28:06;;;;;;;8.85;5.70;;;8.40;93.10;;;;;;5034885;28;20123;-80
2021/12/13 11:30:33;;;;;;;6.75;5.00;;;8.50;93.10;;;;;;5048650;28;20506;-80
2021/12/13 11:32:58;;;;;;;6.93;5.03;;;8.50;93.10;;;;;;5064221;28;20041;-80
2021/12/13 11:36:11;;;;;;;8.85;5.85;;;8.50;93.00;;;;;;5047469;28;20032;-80
2021/12/13 11:39:09;;;;;;;7.25;5.32;;;8.50;93.00;;;;;;4951912;28;20093;-80
2021/12/13 11:41:37;;;;;;;7.63;5.05;;;8.60;93.00;;;;;;5054692;28;20025;-80
2021/12/13 11:44:44;;;;;;;7.85;5.90;;;8.60;93.00;;;;;;5037398;28;20035;-80
2021/12/13 11:47:36;;;;;;;14.00;8.43;;;8.60;92.90;;;;;;5037902;28;20033;-80
2021/12/13 11:50:13;;;;;;;9.75;6.80;;;8.60;92.90;;;;;;5031892;28;20041;-80
2021/12/13 11:53:12;;;;;;;10.13;7.25;;;8.70;92.90;;;;;;5057562;28;20127;-80
2021/12/13 11:55:40;;;;;;;7.70;5.85;;;8.70;92.90;;;;;;5050071;28;20095;-80
2021/12/13 11:58:18;;;;;;;10.82;6.75;;;8.70;92.90;;;;;;5044637;28;20036;-80
2021/12/13 12:01:20;;;;;;;9.60;6.65;;;8.70;92.90;;;;;;5077039;28;20494;-80
2021/12/13 12:04:08;;;;;;;8.45;6.63;;;8.70;92.90;;;;;;5054030;28;20641;-80
2021/12/13 12:06:51;;;;;;;9.20;6.90;;;8.70;92.80;;;;;;5028786;28;20062;-80
2021/12/13 12:09:22;;;;;;;10.27;7.20;;;8.70;92.80;;;;;;5047010;28;20770;-80
2021/12/13 12:12:25;;;;;;;9.25;6.82;;;8.70;92.80;;;;;;5072771;28;20156;-84
2021/12/13 12:14:59;;;;;;;11.00;7.03;;;8.70;92.80;;;;;;5057485;28;20466;-82
2021/12/13 12:17:24;;;;;;;11.18;6.35;;;8.80;92.80;;;;;;5035498;28;20038;-82
2021/12/13 12:19:50;;;;;;;11.10;6.93;;;8.80;92.80;;;;;;5043826;28;20043;-82
2021/12/13 12:22:19;;;;;;;10.68;6.72;;;8.80;92.80;;;;;;5058115;28;20037;-82
2021/12/13 12:24:49;;;;;;;8.40;6.00;;;8.80;92.70;;;;;;5046930;28;20128;-82
2021/12/13 12:27:22;;;;;;;7.90;6.35;;;8.80;92.70;;;;;;5050640;28;20036;-80
2021/12/13 12:29:51;;;;;;;9.10;7.05;;;8.90;93.10;;;;;;5034230;28;20059;-80
2021/12/13 12:32:28;;;;;;;8.20;6.00;;;8.90;92.70;;;;;;5046570;28;20538;-80
2021/12/13 12:35:02;;;;;;;8.65;5.97;;;8.90;92.70;;;;;;5054659;28;20461;-80
2021/12/13 12:37:27;;;;;;;9.38;6.25;;;8.90;92.70;;;;;;5049559;28;20047;-80
2021/12/13 12:40:08;;;;;;;14.45;9.90;;;8.90;92.70;;;;;;5053139;28;20040;-80
2021/12/13 12:42:44;;;;;;;10.18;8.85;;;8.90;92.60;;;;;;5052065;28;20120;-79
2021/12/13 12:45:14;;;;;;;7.50;5.47;;;8.90;92.60;;;;;;5055342;28;20033;-80
2021/12/13 12:47:46;;;;;;;6.50;5.15;;;8.90;92.60;;;;;;5052029;28;20029;-79
2021/12/13 12:50:32;;;;;;;8.13;5.50;;;9.00;92.60;;;;;;5051990;28;20516;-80
2021/12/13 12:53:15;;;;;;;8.82;5.50;;;9.00;92.60;;;;;;5054994;28;20484;-79
2021/12/13 12:55:52;;;;;;;9.98;5.43;;;8.90;92.60;;;;;;5021545;28;20036;-80
2021/12/13 12:58:58;;;;;;;7.40;5.30;;;9.00;92.60;;;;;;5044698;28;20032;-80
2021/12/13 13:01:47;;;;;;;8.55;5.30;;;9.00;92.60;;;;;;5035429;28;20036;-80
2021/12/13 13:04:19;;;;;;;9.95;6.15;;;9.00;92.60;;;;;;5037166;28;20029;-80
2021/12/13 13:06:58;;;;;;;9.18;6.30;;;9.00;92.60;;;;;;5043815;28;20029;-80
2021/12/13 13:09:49;;;;;;;8.23;5.63;;;9.00;92.60;;;;;;5032514;28;20043;-79
2021/12/13 13:12:27;;;;;;;8.38;5.68;;;9.00;92.60;;;;;;5055672;28;20105;-80
2021/12/13 13:15:10;;;;;;;8.75;5.88;;;9.00;92.60;;;;;;5045999;28;20047;-80
2021/12/13 13:17:38;;;;;;;11.10;7.32;;;9.00;92.60;;;;;;5049289;28;20040;-80
2021/12/13 13:20:50;;;;;;;12.02;7.30;;;9.00;92.60;;;;;;5042521;28;20037;-80
2021/12/13 13:23:16;;;;;;;10.20;6.50;;;9.00;92.60;;;;;;5056152;28;20028;-80
2021/12/13 13:25:44;;;;;;;9.10;6.15;;;9.00;92.50;;;;;;5037646;28;20025;-80
2021/12/13 13:28:32;;;;;;;9.40;6.13;;;9.00;92.50;;;;;;5016872;28;20033;-80
2021/12/13 13:31:24;;;;;;;7.65;6.10;;;9.00;92.50;;;;;;5034894;28;20126;-80
2021/12/13 13:33:52;;;;;;;7.68;5.85;;;9.00;92.50;;;;;;5014976;28;20089;-80
2021/12/13 13:36:25;;;;;;;9.10;6.65;;;9.00;92.50;;;;;;5022398;28;20090;-80